sensor_id;sensor_type;location;lat;lon;timestamp;pressure;altitude;pressure_sealevel;temperature;humidity
56518;BME280;42419;48.760;2.322;2022-10-04T00:01:29;101541.09;;;20.91;49.02
56518;BME280;42419;48.760;2.322;2022-10-04T00:04:21;101533.97;;;20.90;48.57
56518;BME280;42419;48.760;2.322;2022-10-04T00:06:53;101546.53;;;20.88;48.76
56518;BME280;42419;48.760;2.322;2022-10-04T00:09:22;101555.44;;;20.89;48.73
56518;BME280;42419;48.760;2.322;2022-10-04T00:11:49;101550.16;;;20.87;48.76
56518;BME280;42419;48.760;2.322;2022-10-04T00:14:20;101551.16;;;20.83;48.60
56518;BME280;42419;48.760;2.322;2022-10-04T00:16:47;101555.50;;;20.87;48.48
56518;BME280;42419;48.760;2.322;2022-10-04T00:24:27;101551.06;;;20.86;48.16
56518;BME280;42419;48.760;2.322;2022-10-04T00:30:12;101543.06;;;20.85;48.04
56518;BME280;42419;48.760;2.322;2022-10-04T00:38:11;101545.81;;;20.83;48.00
56518;BME280;42419;48.760;2.322;2022-10-04T00:40:58;101537.78;;;20.83;47.70
56518;BME280;42419;48.760;2.322;2022-10-04T00:43:32;101546.72;;;20.82;47.60
56518;BME280;42419;48.760;2.322;2022-10-04T00:46:05;101555.66;;;20.81;47.80
56518;BME280;42419;48.760;2.322;2022-10-04T00:48:34;101544.06;;;20.82;47.73
56518;BME280;42419;48.760;2.322;2022-10-04T00:53:51;101539.63;;;20.81;47.37
56518;BME280;42419;48.760;2.322;2022-10-04T00:59:33;101528.09;;;20.79;47.31
56518;BME280;42419;48.760;2.322;2022-10-04T01:02:04;101528.94;;;20.80;47.51
56518;BME280;42419;48.760;2.322;2022-10-04T01:04:39;101527.22;;;20.79;47.22
56518;BME280;42419;48.760;2.322;2022-10-04T01:07:07;101528.13;;;20.78;47.29
56518;BME280;42419;48.760;2.322;2022-10-04T01:09:40;101533.44;;;20.79;47.45
56518;BME280;42419;48.760;2.322;2022-10-04T01:12:18;101529.00;;;20.78;47.14
56518;BME280;42419;48.760;2.322;2022-10-04T01:17:32;101502.41;;;20.72;47.18
56518;BME280;42419;48.760;2.322;2022-10-04T01:19:58;101505.09;;;20.72;47.24
56518;BME280;42419;48.760;2.322;2022-10-04T01:22:35;101496.97;;;20.75;46.85
56518;BME280;42419;48.760;2.322;2022-10-04T01:25:01;101504.97;;;20.77;47.02
56518;BME280;42419;48.760;2.322;2022-10-04T01:29:58;101498.72;;;20.76;46.88
56518;BME280;42419;48.760;2.322;2022-10-04T01:32:24;101491.69;;;20.74;46.90
56518;BME280;42419;48.760;2.322;2022-10-04T01:34:50;101486.47;;;20.69;46.81
56518;BME280;42419;48.760;2.322;2022-10-04T01:37:15;101489.81;;;20.76;46.68
56518;BME280;42419;48.760;2.322;2022-10-04T01:39:41;101485.34;;;20.76;46.79
56518;BME280;42419;48.760;2.322;2022-10-04T01:42:14;101485.34;;;20.76;46.54
56518;BME280;42419;48.760;2.322;2022-10-04T01:50:05;101476.78;;;20.65;46.47
56518;BME280;42419;48.760;2.322;2022-10-04T01:52:42;101479.19;;;20.74;46.39
56518;BME280;42419;48.760;2.322;2022-10-04T01:55:23;101483.66;;;20.74;46.46
56518;BME280;42419;48.760;2.322;2022-10-04T01:57:58;101467.72;;;20.69;46.35
56518;BME280;42419;48.760;2.322;2022-10-04T02:00:25;101470.28;;;20.74;46.36
56518;BME280;42419;48.760;2.322;2022-10-04T02:02:58;101471.19;;;20.73;45.96
56518;BME280;42419;48.760;2.322;2022-10-04T02:05:29;101456.31;;;20.62;46.28
56518;BME280;42419;48.760;2.322;2022-10-04T02:08:02;101468.63;;;20.70;46.20
56518;BME280;42419;48.760;2.322;2022-10-04T02:10:31;101469.41;;;20.72;46.33
56518;BME280;42419;48.760;2.322;2022-10-04T02:13:00;101465.84;;;20.73;46.36
56518;BME280;42419;48.760;2.322;2022-10-04T02:15:27;101461.41;;;20.72;46.23
56518;BME280;42419;48.760;2.322;2022-10-04T02:17:54;101456.03;;;20.72;46.26
56518;BME280;42419;48.760;2.322;2022-10-04T02:20:23;101449.88;;;20.70;46.25
56518;BME280;42419;48.760;2.322;2022-10-04T02:22:55;101447.13;;;20.71;45.93
56518;BME280;42419;48.760;2.322;2022-10-04T02:25:23;101427.75;;;20.64;46.17
56518;BME280;42419;48.760;2.322;2022-10-04T02:27:51;101441.78;;;20.71;46.10
56518;BME280;42419;48.760;2.322;2022-10-04T02:30:18;101431.06;;;20.71;45.99
56518;BME280;42419;48.760;2.322;2022-10-04T02:32:43;101422.41;;;20.63;45.96
56518;BME280;42419;48.760;2.322;2022-10-04T02:35:33;101432.09;;;20.67;45.66
56518;BME280;42419;48.760;2.322;2022-10-04T02:38:11;101439.22;;;20.68;45.99
56518;BME280;42419;48.760;2.322;2022-10-04T02:40:44;101424.19;;;20.64;45.94
56518;BME280;42419;48.760;2.322;2022-10-04T02:43:17;101407.34;;;20.60;45.75
56518;BME280;42419;48.760;2.322;2022-10-04T02:46:11;101423.19;;;20.67;45.60
56518;BME280;42419;48.760;2.322;2022-10-04T02:48:46;101428.53;;;20.67;45.59
56518;BME280;42419;48.760;2.322;2022-10-04T02:51:32;101433.09;;;20.64;45.56
56518;BME280;42419;48.760;2.322;2022-10-04T02:54:17;101422.38;;;20.64;45.48
56518;BME280;42419;48.760;2.322;2022-10-04T02:56:52;101418.81;;;20.64;45.72
56518;BME280;42419;48.760;2.322;2022-10-04T02:59:18;101397.81;;;20.52;45.86
56518;BME280;42419;48.760;2.322;2022-10-04T03:01:58;101422.38;;;20.64;45.51
56518;BME280;42419;48.760;2.322;2022-10-04T03:04:31;101421.50;;;20.64;45.14
56518;BME280;42419;48.760;2.322;2022-10-04T03:07:00;101413.47;;;20.64;46.11
56518;BME280;42419;48.760;2.322;2022-10-04T03:09:29;101413.47;;;20.64;45.63
56518;BME280;42419;48.760;2.322;2022-10-04T03:11:54;101409.91;;;20.63;45.69
56518;BME280;42419;48.760;2.322;2022-10-04T03:14:24;101417.03;;;20.64;45.39
56518;BME280;42419;48.760;2.322;2022-10-04T03:16:52;101411.06;;;20.56;45.39
56518;BME280;42419;48.760;2.322;2022-10-04T03:19:21;101401.19;;;20.57;45.47
56518;BME280;42419;48.760;2.322;2022-10-04T03:21:48;101411.72;;;20.63;45.38
56518;BME280;42419;48.760;2.322;2022-10-04T03:24:20;101399.38;;;20.59;45.26
56518;BME280;42419;48.760;2.322;2022-10-04T03:26:51;101410.84;;;20.62;45.22
56518;BME280;42419;48.760;2.322;2022-10-04T03:29:21;101400.13;;;20.62;45.10
56518;BME280;42419;48.760;2.322;2022-10-04T03:31:49;101393.91;;;20.62;45.19
56518;BME280;42419;48.760;2.322;2022-10-04T03:34:21;101393.91;;;20.62;45.29
56518;BME280;42419;48.760;2.322;2022-10-04T03:36:48;101385.22;;;20.55;45.31
56518;BME280;42419;48.760;2.322;2022-10-04T03:39:25;101385.88;;;20.62;44.99
56518;BME280;42419;48.760;2.322;2022-10-04T03:41:52;101385.00;;;20.61;45.15
56518;BME280;42419;48.760;2.322;2022-10-04T03:44:18;101381.47;;;20.61;45.38
56518;BME280;42419;48.760;2.322;2022-10-04T03:46:45;101359.41;;;20.53;45.32
56518;BME280;42419;48.760;2.322;2022-10-04T03:49:17;101362.94;;;20.55;45.00
56518;BME280;42419;48.760;2.322;2022-10-04T03:51:47;101319.22;;;20.27;45.07
56518;BME280;42419;48.760;2.322;2022-10-04T03:54:16;101362.09;;;20.53;45.00
56518;BME280;42419;48.760;2.322;2022-10-04T03:56:43;101366.50;;;20.55;45.08
56518;BME280;42419;48.760;2.322;2022-10-04T03:59:12;101376.13;;;20.61;44.81
56518;BME280;42419;48.760;2.322;2022-10-04T04:01:46;101383.28;;;20.60;44.96
56518;BME280;42419;48.760;2.322;2022-10-04T04:07:10;101367.44;;;20.53;44.86
56518;BME280;42419;48.760;2.322;2022-10-04T04:09:38;101376.16;;;20.59;45.02
56518;BME280;42419;48.760;2.322;2022-10-04T04:12:10;101376.19;;;20.58;44.85
56518;BME280;42419;48.760;2.322;2022-10-04T04:14:39;101380.63;;;20.59;44.89
56518;BME280;42419;48.760;2.322;2022-10-04T04:20:00;101326.41;;;20.25;44.49
56518;BME280;42419;48.760;2.322;2022-10-04T04:22:28;101391.38;;;20.57;44.91
56518;BME280;42419;48.760;2.322;2022-10-04T04:24:58;101386.03;;;20.57;44.75
56518;BME280;42419;48.760;2.322;2022-10-04T04:27:27;101387.81;;;20.57;44.77
56518;BME280;42419;48.760;2.322;2022-10-04T04:29:58;101378.25;;;20.50;44.70
56518;BME280;42419;48.760;2.322;2022-10-04T04:32:30;101388.06;;;20.49;44.67
56518;BME280;42419;48.760;2.322;2022-10-04T04:34:58;101411.91;;;20.57;44.75
56518;BME280;42419;48.760;2.322;2022-10-04T04:37:25;101406.53;;;20.57;44.64
56518;BME280;42419;48.760;2.322;2022-10-04T04:39:52;101389.81;;;20.50;44.56
56518;BME280;42419;48.760;2.322;2022-10-04T04:42:29;101395.94;;;20.54;44.57
56518;BME280;42419;48.760;2.322;2022-10-04T04:44:59;101398.72;;;20.51;44.46
56518;BME280;42419;48.760;2.322;2022-10-04T04:47:41;101410.19;;;20.54;44.28
56518;BME280;42419;48.760;2.322;2022-10-04T04:50:19;101397.72;;;20.55;44.46
56518;BME280;42419;48.760;2.322;2022-10-04T04:52:48;101389.69;;;20.55;44.66
56518;BME280;42419;48.760;2.322;2022-10-04T04:55:25;101391.47;;;20.54;44.53
56518;BME280;42419;48.760;2.322;2022-10-04T04:57:54;101385.47;;;20.48;44.66
56518;BME280;42419;48.760;2.322;2022-10-04T05:00:28;101395.94;;;20.54;44.43
56518;BME280;42419;48.760;2.322;2022-10-04T05:02:57;101396.03;;;20.52;44.43
56518;BME280;42419;48.760;2.322;2022-10-04T05:05:26;101367.03;;;20.37;44.15
56518;BME280;42419;48.760;2.322;2022-10-04T05:10:32;101399.53;;;20.53;44.46
56518;BME280;42419;48.760;2.322;2022-10-04T05:12:59;101396.97;;;20.50;44.56
56518;BME280;42419;48.760;2.322;2022-10-04T05:15:26;101403.16;;;20.52;44.57
56518;BME280;42419;48.760;2.322;2022-10-04T05:17:55;101396.28;;;20.43;44.52
56518;BME280;42419;48.760;2.322;2022-10-04T05:20:20;101402.31;;;20.50;44.58
56518;BME280;42419;48.760;2.322;2022-10-04T05:22:47;101397.81;;;20.52;44.53
56518;BME280;42419;48.760;2.322;2022-10-04T05:25:25;101398.69;;;20.52;44.49
56518;BME280;42419;48.760;2.322;2022-10-04T05:27:53;101409.41;;;20.52;44.48
56518;BME280;42419;48.760;2.322;2022-10-04T05:30:42;101412.09;;;20.51;44.55
56518;BME280;42419;48.760;2.322;2022-10-04T05:33:24;101403.16;;;20.52;44.57
56518;BME280;42419;48.760;2.322;2022-10-04T05:41:18;101398.63;;;20.54;45.23
56518;BME280;42419;48.760;2.322;2022-10-04T05:43:50;101395.84;;;20.57;45.22
56518;BME280;42419;48.760;2.322;2022-10-04T05:49:09;101400.13;;;20.62;45.42
56518;BME280;42419;48.760;2.322;2022-10-04T05:51:53;101395.66;;;20.63;45.53
56518;BME280;42419;48.760;2.322;2022-10-04T05:54:22;101393.09;;;20.60;45.47
56518;BME280;42419;48.760;2.322;2022-10-04T06:05:11;101401.91;;;20.63;45.65
56518;BME280;42419;48.760;2.322;2022-10-04T06:15:47;101397.38;;;20.66;45.55
56518;BME280;42419;48.760;2.322;2022-10-04T06:21:08;101402.78;;;20.64;45.36
56518;BME280;42419;48.760;2.322;2022-10-04T06:23:47;101417.06;;;20.63;45.85
56518;BME280;42419;48.760;2.322;2022-10-04T06:26:19;101407.44;;;20.57;45.70
56518;BME280;42419;48.760;2.322;2022-10-04T06:28:50;101393.34;;;20.52;44.81
56518;BME280;42419;48.760;2.322;2022-10-04T06:34:17;101403.06;;;20.55;43.86
56518;BME280;42419;48.760;2.322;2022-10-04T06:51:00;101415.41;;;20.30;42.14
56518;BME280;42419;48.760;2.322;2022-10-04T07:01:54;101415.69;;;20.19;42.35
56518;BME280;42419;48.760;2.322;2022-10-04T07:04:48;101422.81;;;20.20;42.07
56518;BME280;42419;48.760;2.322;2022-10-04T07:12:31;101417.53;;;20.17;42.76
56518;BME280;42419;48.760;2.322;2022-10-04T07:15:02;101427.38;;;20.16;42.83
56518;BME280;42419;48.760;2.322;2022-10-04T07:17:34;101422.06;;;20.15;42.89
56518;BME280;42419;48.760;2.322;2022-10-04T07:20:02;101420.31;;;20.14;42.74
56518;BME280;42419;48.760;2.322;2022-10-04T07:22:40;101404.59;;;20.03;42.26
56518;BME280;42419;48.760;2.322;2022-10-04T07:25:14;101409.94;;;20.03;42.54
56518;BME280;42419;48.760;2.322;2022-10-04T07:30:38;101434.78;;;20.07;42.44
56518;BME280;42419;48.760;2.322;2022-10-04T07:33:07;101428.59;;;20.05;42.60
56518;BME280;42419;48.760;2.322;2022-10-04T07:35:49;101391.00;;;19.80;42.18
56518;BME280;42419;48.760;2.322;2022-10-04T07:38:27;101438.38;;;20.06;42.17
56518;BME280;42419;48.760;2.322;2022-10-04T07:43:28;101442.00;;;20.03;42.66
56518;BME280;42419;48.760;2.322;2022-10-04T07:46:36;101438.59;;;19.98;42.56
56518;BME280;42419;48.760;2.322;2022-10-04T07:48:49;101442.84;;;20.04;42.68
56518;BME280;42419;48.760;2.322;2022-10-04T07:51:58;101444.69;;;20.03;42.54
56518;BME280;42419;48.760;2.322;2022-10-04T07:56:58;101438.50;;;20.01;42.47
56518;BME280;42419;48.760;2.322;2022-10-04T07:59:43;101418.28;;;19.91;42.19
56518;BME280;42419;48.760;2.322;2022-10-04T08:02:24;101434.03;;;20.02;42.25
56518;BME280;42419;48.760;2.322;2022-10-04T08:05:27;101432.25;;;20.01;42.48
56518;BME280;42419;48.760;2.322;2022-10-04T08:08:13;101426.94;;;19.99;42.66
56518;BME280;42419;48.760;2.322;2022-10-04T08:13:56;101407.69;;;19.88;42.63
56518;BME280;42419;48.760;2.322;2022-10-04T08:19:20;101419.03;;;19.96;42.67
56518;BME280;42419;48.760;2.322;2022-10-04T08:24:46;101422.59;;;19.97;42.67
56518;BME280;42419;48.760;2.322;2022-10-04T08:30:03;101430.63;;;19.95;42.71
56518;BME280;42419;48.760;2.322;2022-10-04T08:35:31;101435.06;;;19.96;42.48
56518;BME280;42419;48.760;2.322;2022-10-04T08:52:00;101455.44;;;20.00;42.65
56518;BME280;42419;48.760;2.322;2022-10-04T09:20:00;101461.41;;;20.72;42.01
56518;BME280;42419;48.760;2.322;2022-10-04T09:22:51;101463.47;;;20.91;41.76
56518;BME280;42419;48.760;2.322;2022-10-04T09:25:46;101462.88;;;21.09;41.11
56518;BME280;42419;48.760;2.322;2022-10-04T09:46:02;101445.31;;;21.80;40.10
56518;BME280;42419;48.760;2.322;2022-10-04T09:57:04;101390.13;;;21.74;39.46
56518;BME280;42419;48.760;2.322;2022-10-04T09:59:50;101430.22;;;22.04;39.38
56518;BME280;42419;48.760;2.322;2022-10-04T10:02:46;101431.72;;;22.11;39.78
56518;BME280;42419;48.760;2.322;2022-10-04T10:05:27;101438.00;;;22.10;39.70
56518;BME280;42419;48.760;2.322;2022-10-04T10:11:22;101423.47;;;22.17;39.72
56518;BME280;42419;48.760;2.322;2022-10-04T10:17:49;101423.19;;;22.23;39.92
56518;BME280;42419;48.760;2.322;2022-10-04T10:20:27;101422.97;;;22.29;39.79
56518;BME280;42419;48.760;2.322;2022-10-04T10:23:24;101423.69;;;22.34;39.43
56518;BME280;42419;48.760;2.322;2022-10-04T10:37:33;101409.84;;;22.45;39.87
56518;BME280;42419;48.760;2.322;2022-10-04T10:40:27;101393.75;;;22.45;39.54
56518;BME280;42419;48.760;2.322;2022-10-04T10:46:00;101389.81;;;22.55;39.83
56518;BME280;42419;48.760;2.322;2022-10-04T10:54:30;101400.91;;;22.67;39.54
56518;BME280;42419;48.760;2.322;2022-10-04T10:57:28;101392.78;;;22.70;39.54
56518;BME280;42419;48.760;2.322;2022-10-04T11:00:20;101396.25;;;22.72;39.66
56518;BME280;42419;48.760;2.322;2022-10-04T11:11:37;101390.59;;;22.80;39.58
56518;BME280;42419;48.760;2.322;2022-10-04T11:14:43;101389.56;;;22.82;39.70
56518;BME280;42419;48.760;2.322;2022-10-04T11:25:55;101394.81;;;22.85;39.85
56518;BME280;42419;48.760;2.322;2022-10-04T11:37:10;101391.94;;;22.90;39.67
56518;BME280;42419;48.760;2.322;2022-10-04T11:39:57;101394.56;;;22.92;39.87
56518;BME280;42419;48.760;2.322;2022-10-04T11:46:00;101399.81;;;22.95;40.03
56518;BME280;42419;48.760;2.322;2022-10-04T12:05:22;101401.06;;;23.08;39.92
56518;BME280;42419;48.760;2.322;2022-10-04T12:14:07;101388.31;;;23.13;40.17
56518;BME280;42419;48.760;2.322;2022-10-04T12:16:54;101386.50;;;23.13;39.81
56518;BME280;42419;48.760;2.322;2022-10-04T12:22:33;101388.16;;;23.16;40.10
56518;BME280;42419;48.760;2.322;2022-10-04T12:25:31;101389.13;;;23.15;39.67
56518;BME280;42419;48.760;2.322;2022-10-04T12:28:36;101393.44;;;23.19;40.33
56518;BME280;42419;48.760;2.322;2022-10-04T12:31:33;101395.19;;;23.20;40.27
56518;BME280;42419;48.760;2.322;2022-10-04T12:39:46;101365.59;;;23.21;40.21
56518;BME280;42419;48.760;2.322;2022-10-04T12:42:26;101359.44;;;23.18;40.30
56518;BME280;42419;48.760;2.322;2022-10-04T12:48:07;101352.03;;;23.24;40.36
56518;BME280;42419;48.760;2.322;2022-10-04T12:56:43;101344.81;;;23.25;40.59
56518;BME280;42419;48.760;2.322;2022-10-04T13:02:04;101338.50;;;23.26;40.67
56518;BME280;42419;48.760;2.322;2022-10-04T13:04:46;101343.09;;;23.24;40.88
56518;BME280;42419;48.760;2.322;2022-10-04T13:10:03;101339.34;;;23.28;40.86
56518;BME280;42419;48.760;2.322;2022-10-04T13:21:02;101327.84;;;23.24;40.81
56518;BME280;42419;48.760;2.322;2022-10-04T13:23:51;101331.38;;;23.25;40.87
56518;BME280;42419;48.760;2.322;2022-10-04T13:26:29;101331.38;;;23.25;41.48
56518;BME280;42419;48.760;2.322;2022-10-04T13:29:25;101324.34;;;23.22;41.00
56518;BME280;42419;48.760;2.322;2022-10-04T13:32:10;101322.41;;;23.26;41.61
56518;BME280;42419;48.760;2.322;2022-10-04T13:40:34;101313.56;;;23.24;41.20
56518;BME280;42419;48.760;2.322;2022-10-04T13:45:55;101305.47;;;23.24;41.28
56518;BME280;42419;48.760;2.322;2022-10-04T13:48:37;101305.47;;;23.24;41.52
56518;BME280;42419;48.760;2.322;2022-10-04T14:08:35;101289.41;;;23.22;41.41
56518;BME280;42419;48.760;2.322;2022-10-04T14:35:20;101277.03;;;23.18;41.29
56518;BME280;42419;48.760;2.322;2022-10-04T14:54:41;101264.25;;;23.03;40.94
56518;BME280;42419;48.760;2.322;2022-10-04T15:00:16;101261.91;;;22.96;41.38
56518;BME280;42419;48.760;2.322;2022-10-04T15:11:06;101264.13;;;22.86;41.20
56518;BME280;42419;48.760;2.322;2022-10-04T15:13:50;101269.81;;;22.78;41.26
56518;BME280;42419;48.760;2.322;2022-10-04T15:16:43;101268.31;;;22.71;41.52
56518;BME280;42419;48.760;2.322;2022-10-04T15:22:01;101263.38;;;22.62;41.51
56518;BME280;42419;48.760;2.322;2022-10-04T15:24:42;101263.63;;;22.56;41.85
56518;BME280;42419;48.760;2.322;2022-10-04T15:30:18;101213.38;;;22.16;41.73
56518;BME280;42419;48.760;2.322;2022-10-04T15:38:28;101241.31;;;22.32;41.89
56518;BME280;42419;48.760;2.322;2022-10-04T15:41:17;101237.88;;;22.29;42.15
56518;BME280;42419;48.760;2.322;2022-10-04T16:06:39;101226.00;;;21.91;42.89
56518;BME280;42419;48.760;2.322;2022-10-04T16:14:28;101225.34;;;21.84;43.48
56518;BME280;42419;48.760;2.322;2022-10-04T16:17:17;101239.75;;;21.82;43.08
56518;BME280;42419;48.760;2.322;2022-10-04T16:20:01;101235.38;;;21.79;43.19
56518;BME280;42419;48.760;2.322;2022-10-04T16:22:31;101233.78;;;21.74;43.46
56518;BME280;42419;48.760;2.322;2022-10-04T16:30:34;101245.50;;;21.71;43.49
56518;BME280;42419;48.760;2.322;2022-10-04T16:38:33;101232.63;;;21.58;43.67
56518;BME280;42419;48.760;2.322;2022-10-04T16:41:13;101237.69;;;21.65;43.71
56518;BME280;42419;48.760;2.322;2022-10-04T16:43:53;101235.94;;;21.64;43.72
56518;BME280;42419;48.760;2.322;2022-10-04T16:46:37;101232.47;;;21.62;43.73
56518;BME280;42419;48.760;2.322;2022-10-04T16:49:44;101232.59;;;21.59;43.87
56518;BME280;42419;48.760;2.322;2022-10-04T16:52:25;101239.03;;;21.53;43.95
56518;BME280;42419;48.760;2.322;2022-10-04T16:54:59;101243.47;;;21.55;43.84
56518;BME280;42419;48.760;2.322;2022-10-04T16:57:26;101247.13;;;21.52;44.02
56518;BME280;42419;48.760;2.322;2022-10-04T16:59:57;101238.50;;;21.44;44.08
56518;BME280;42419;48.760;2.322;2022-10-04T17:07:58;101271.50;;;21.46;44.06
56518;BME280;42419;48.760;2.322;2022-10-04T17:13:35;101276.94;;;21.43;44.10
56518;BME280;42419;48.760;2.322;2022-10-04T17:16:11;101280.63;;;21.40;44.08
56518;BME280;42419;48.760;2.322;2022-10-04T17:21:44;101284.25;;;21.38;44.28
56518;BME280;42419;48.760;2.322;2022-10-04T17:24:51;101283.47;;;21.36;44.24
56518;BME280;42419;48.760;2.322;2022-10-04T17:30:26;101301.47;;;21.32;44.50
56518;BME280;42419;48.760;2.322;2022-10-04T17:33:13;101294.34;;;21.31;44.67
56518;BME280;42419;48.760;2.322;2022-10-04T17:38:50;101303.25;;;21.32;45.40
56518;BME280;42419;48.760;2.322;2022-10-04T17:44:22;101284.44;;;21.33;45.31
56518;BME280;42419;48.760;2.322;2022-10-04T17:49:28;101273.66;;;21.35;45.51
56518;BME280;42419;48.760;2.322;2022-10-04T17:52:24;101281.66;;;21.36;45.34
56518;BME280;42419;48.760;2.322;2022-10-04T17:55:23;101281.00;;;21.30;45.46
56518;BME280;42419;48.760;2.322;2022-10-04T17:58:08;101276.63;;;21.27;45.33
56518;BME280;42419;48.760;2.322;2022-10-04T18:00:57;101281.75;;;21.33;45.39
56518;BME280;42419;48.760;2.322;2022-10-04T18:03:35;101289.69;;;21.36;45.31
56518;BME280;42419;48.760;2.322;2022-10-04T18:06:18;101275.56;;;21.33;45.28
56518;BME280;42419;48.760;2.322;2022-10-04T18:08:54;101286.19;;;21.34;45.27
56518;BME280;42419;48.760;2.322;2022-10-04T18:14:18;101272.00;;;21.32;45.23
56518;BME280;42419;48.760;2.322;2022-10-04T18:16:55;101273.66;;;21.35;45.58
56518;BME280;42419;48.760;2.322;2022-10-04T18:24:41;101275.44;;;21.36;45.21
56518;BME280;42419;48.760;2.322;2022-10-04T18:27:20;101268.31;;;21.35;45.53
56518;BME280;42419;48.760;2.322;2022-10-04T18:32:37;101270.94;;;21.36;45.73
56518;BME280;42419;48.760;2.322;2022-10-04T18:37:49;101262.84;;;21.38;45.99
56518;BME280;42419;48.760;2.322;2022-10-04T18:40:25;101272.66;;;21.37;45.92
56518;BME280;42419;48.760;2.322;2022-10-04T18:42:55;101253.28;;;21.31;46.42
56518;BME280;42419;48.760;2.322;2022-10-04T18:45:39;101257.47;;;21.38;46.01
56518;BME280;42419;48.760;2.322;2022-10-04T18:48:35;101268.16;;;21.39;46.14
56518;BME280;42419;48.760;2.322;2022-10-04T18:51:22;101266.34;;;21.40;46.29
56518;BME280;42419;48.760;2.322;2022-10-04T19:02:28;101241.09;;;21.22;48.17
56518;BME280;42419;48.760;2.322;2022-10-04T19:05:01;101277.81;;;21.43;48.10
56518;BME280;42419;48.760;2.322;2022-10-04T19:16:14;101287.72;;;21.41;49.58
56518;BME280;42419;48.760;2.322;2022-10-04T19:21:31;101289.41;;;21.44;48.67
56518;BME280;42419;48.760;2.322;2022-10-04T19:26:37;101305.38;;;21.47;47.14
56518;BME280;42419;48.760;2.322;2022-10-04T19:31:46;101281.72;;;21.35;49.27
56518;BME280;42419;48.760;2.322;2022-10-04T19:34:19;101284.25;;;21.38;51.11
56518;BME280;42419;48.760;2.322;2022-10-04T19:37:04;101299.09;;;21.48;50.68
56518;BME280;42419;48.760;2.322;2022-10-04T19:42:20;101310.31;;;21.59;54.62
56518;BME280;42419;48.760;2.322;2022-10-04T19:52:54;101317.16;;;21.66;52.65
56518;BME280;42419;48.760;2.322;2022-10-04T19:55:39;101313.56;;;21.67;52.74
56518;BME280;42419;48.760;2.322;2022-10-04T19:58:25;101309.97;;;21.68;52.13
56518;BME280;42419;48.760;2.322;2022-10-04T20:17:59;101326.41;;;22.06;48.70
56518;BME280;42419;48.760;2.322;2022-10-04T20:23:03;101278.59;;;21.70;49.03
56518;BME280;42419;48.760;2.322;2022-10-04T20:31:00;101312.31;;;21.77;48.93
56518;BME280;42419;48.760;2.322;2022-10-04T20:36:09;101276.38;;;21.58;49.21
56518;BME280;42419;48.760;2.322;2022-10-04T20:46:26;101286.09;;;21.61;48.94
56518;BME280;42419;48.760;2.322;2022-10-04T20:48:54;101294.84;;;21.66;48.92
56518;BME280;42419;48.760;2.322;2022-10-04T20:51:20;101290.50;;;21.63;48.90
56518;BME280;42419;48.760;2.322;2022-10-04T20:53:47;101291.53;;;21.59;49.12
56518;BME280;42419;48.760;2.322;2022-10-04T20:56:24;101287.09;;;21.58;48.78
56518;BME280;42419;48.760;2.322;2022-10-04T20:59:01;101292.28;;;21.63;48.73
56518;BME280;42419;48.760;2.322;2022-10-04T21:01:32;101284.47;;;21.57;48.63
56518;BME280;42419;48.760;2.322;2022-10-04T21:04:21;101281.88;;;21.55;48.89
56518;BME280;42419;48.760;2.322;2022-10-04T21:07:04;101281.97;;;21.52;48.77
56518;BME280;42419;48.760;2.322;2022-10-04T21:09:31;101280.03;;;21.56;48.58
56518;BME280;42419;48.760;2.322;2022-10-04T21:11:57;101290.66;;;21.59;48.76
56518;BME280;42419;48.760;2.322;2022-10-04T21:14:30;101280.28;;;21.49;48.60
56518;BME280;42419;48.760;2.322;2022-10-04T21:17:03;101299.59;;;21.59;48.41
56518;BME280;42419;48.760;2.322;2022-10-04T21:22:02;101290.72;;;21.57;48.23
56518;BME280;42419;48.760;2.322;2022-10-04T21:24:35;101284.72;;;21.50;48.32
56518;BME280;42419;48.760;2.322;2022-10-04T21:27:01;101288.03;;;21.57;48.36
56518;BME280;42419;48.760;2.322;2022-10-04T21:29:27;101275.72;;;21.51;48.44
56518;BME280;42419;48.760;2.322;2022-10-04T21:31:58;101286.28;;;21.56;48.71
56518;BME280;42419;48.760;2.322;2022-10-04T21:34:24;101288.03;;;21.57;48.52
56518;BME280;42419;48.760;2.322;2022-10-04T21:36:50;101285.34;;;21.57;48.84
56518;BME280;42419;48.760;2.322;2022-10-04T21:39:16;101279.13;;;21.57;48.82
56518;BME280;42419;48.760;2.322;2022-10-04T21:41:42;101281.78;;;21.57;48.78
56518;BME280;42419;48.760;2.322;2022-10-04T21:44:07;101291.59;;;21.58;48.93
56518;BME280;42419;48.760;2.322;2022-10-04T21:46:33;101279.28;;;21.52;48.89
56518;BME280;42419;48.760;2.322;2022-10-04T21:48:59;101289.78;;;21.58;48.83
56518;BME280;42419;48.760;2.322;2022-10-04T21:51:24;101276.59;;;21.52;48.92
56518;BME280;42419;48.760;2.322;2022-10-04T21:53:49;101292.47;;;21.58;49.10
56518;BME280;42419;48.760;2.322;2022-10-04T21:56:14;101293.34;;;21.59;48.84
56518;BME280;42419;48.760;2.322;2022-10-04T21:58:40;101280.22;;;21.51;49.01
56518;BME280;42419;48.760;2.322;2022-10-04T22:01:05;101274.97;;;21.48;49.07
56518;BME280;42419;48.760;2.322;2022-10-04T22:03:31;101302.25;;;21.59;49.24
56518;BME280;42419;48.760;2.322;2022-10-04T22:05:56;101299.66;;;21.56;48.97
56518;BME280;42419;48.760;2.322;2022-10-04T22:08:22;101277.88;;;21.42;48.79
56518;BME280;42419;48.760;2.322;2022-10-04T22:10:47;101278.69;;;21.44;48.98
56518;BME280;42419;48.760;2.322;2022-10-04T22:13:13;101303.19;;;21.58;49.06
56518;BME280;42419;48.760;2.322;2022-10-04T22:15:38;101306.75;;;21.59;49.38
56518;BME280;42419;48.760;2.322;2022-10-04T22:18:04;101293.44;;;21.56;49.23
56518;BME280;42419;48.760;2.322;2022-10-04T22:20:29;101292.41;;;21.60;49.29
56518;BME280;42419;48.760;2.322;2022-10-04T22:22:55;101290.59;;;21.60;49.32
56518;BME280;42419;48.760;2.322;2022-10-04T22:25:23;101288.03;;;21.57;49.44